createdAt,value
2023-08-22T00:02:27.813Z,1.55
2023-08-22T00:04:54.883Z,2.20
2023-08-22T00:07:21.598Z,2.05
2023-08-22T00:09:48.372Z,2.03
2023-08-22T00:12:15.243Z,1.45
2023-08-22T00:14:41.941Z,1.45
2023-08-22T00:17:11.923Z,2.28
2023-08-22T00:19:40.191Z,1.25
2023-08-22T00:22:07.074Z,1.73
2023-08-22T00:24:33.984Z,1.83
2023-08-22T00:27:00.906Z,1.73
2023-08-22T00:29:27.601Z,1.48
2023-08-22T00:31:54.451Z,1.70
2023-08-22T00:34:21.174Z,1.67
2023-08-22T00:36:47.880Z,2.30
2023-08-22T00:39:14.802Z,1.60
2023-08-22T00:41:41.582Z,1.40
2023-08-22T00:44:08.309Z,1.55
2023-08-22T00:46:35.211Z,1.88
2023-08-22T00:49:02.210Z,1.30
2023-08-22T00:51:28.968Z,3.38
2023-08-22T00:53:55.664Z,1.55
2023-08-22T00:56:22.379Z,2.00
2023-08-22T00:58:49.264Z,1.73
2023-08-22T01:01:16.040Z,1.67
2023-08-22T01:03:43.094Z,1.70
2023-08-22T01:06:23.566Z,2.15
2023-08-22T01:08:51.432Z,2.88
2023-08-22T01:11:32.867Z,1.92
2023-08-22T01:14:03.028Z,2.00
2023-08-22T01:16:29.807Z,2.08
2023-08-22T01:18:56.600Z,3.60
2023-08-22T01:21:23.483Z,1.80
2023-08-22T01:23:50.289Z,2.10
2023-08-22T01:26:17.458Z,1.90
2023-08-22T01:28:47.548Z,2.58
2023-08-22T01:31:35.234Z,2.50
2023-08-22T01:34:01.954Z,1.85
2023-08-22T01:36:28.840Z,2.47
2023-08-22T01:38:55.596Z,2.40
2023-08-22T01:41:22.964Z,2.50
2023-08-22T01:43:52.654Z,3.15
2023-08-22T01:46:19.385Z,1.85
2023-08-22T01:48:51.864Z,2.63
2023-08-22T01:51:19.109Z,2.45
2023-08-22T01:53:45.810Z,2.10
2023-08-22T01:56:12.639Z,2.50
2023-08-22T01:58:39.432Z,2.60
2023-08-22T02:01:10.269Z,2.17
2023-08-22T02:03:37.536Z,2.22
2023-08-22T02:06:04.529Z,2.40
2023-08-22T02:08:31.269Z,2.40
2023-08-22T02:10:58.073Z,3.28
2023-08-22T02:13:24.862Z,2.35
2023-08-22T02:15:51.718Z,3.13
2023-08-22T02:18:18.466Z,3.58
2023-08-22T02:20:45.206Z,3.63
2023-08-22T02:23:11.896Z,2.65
2023-08-22T02:25:38.656Z,3.00
2023-08-22T02:28:05.690Z,3.78
2023-08-22T02:30:32.415Z,3.17
2023-08-22T02:32:59.151Z,2.65
2023-08-22T02:35:25.924Z,3.00
2023-08-22T02:37:52.676Z,3.13
2023-08-22T02:40:19.481Z,3.60
2023-08-22T02:42:46.206Z,2.88
2023-08-22T02:45:12.912Z,2.72
2023-08-22T02:47:40.005Z,3.33
2023-08-22T02:50:07.773Z,3.25
2023-08-22T02:52:34.599Z,4.07
2023-08-22T02:55:01.369Z,4.32
2023-08-22T02:57:28.132Z,4.45
2023-08-22T02:59:54.928Z,4.35
2023-08-22T03:02:21.682Z,3.83
2023-08-22T03:04:48.508Z,4.72
2023-08-22T03:07:15.226Z,3.78
2023-08-22T03:09:41.995Z,4.72
2023-08-22T03:12:08.943Z,4.65
2023-08-22T03:14:35.667Z,4.05
2023-08-22T03:17:02.574Z,4.57
2023-08-22T03:19:29.323Z,4.40
2023-08-22T03:21:56.022Z,4.22
2023-08-22T03:24:22.719Z,4.30
2023-08-22T03:26:49.526Z,4.60
2023-08-22T03:29:16.332Z,4.68
2023-08-22T03:31:43.026Z,5.85
2023-08-22T03:34:09.746Z,4.30
2023-08-22T03:36:36.523Z,5.30
2023-08-22T03:39:03.343Z,4.95
2023-08-22T03:41:30.074Z,4.57
2023-08-22T03:43:56.776Z,5.30
2023-08-22T03:46:37.351Z,5.13
2023-08-22T03:49:05.224Z,4.93
2023-08-22T03:51:31.941Z,5.35
2023-08-22T03:53:58.652Z,5.55
2023-08-22T03:56:25.369Z,4.95
2023-08-22T03:58:52.076Z,5.70
2023-08-22T04:01:18.840Z,5.25
2023-08-22T04:03:45.586Z,6.35
2023-08-22T04:06:12.298Z,5.85
2023-08-22T04:08:39.503Z,5.50
2023-08-22T04:11:06.230Z,5.95
2023-08-22T04:13:32.954Z,5.93
2023-08-22T04:15:59.664Z,5.80
2023-08-22T04:18:26.402Z,6.07
2023-08-22T04:20:53.098Z,6.30
2023-08-22T04:23:19.848Z,6.35
2023-08-22T04:25:46.554Z,6.53
2023-08-22T04:28:14.336Z,5.65
2023-08-22T04:30:43.877Z,6.32
2023-08-22T04:33:10.837Z,6.07
2023-08-22T04:35:38.651Z,5.68
2023-08-22T04:38:05.698Z,6.20
2023-08-22T04:40:32.439Z,5.78
2023-08-22T04:42:59.216Z,4.85
2023-08-22T04:45:26.049Z,5.22
2023-08-22T04:47:53.262Z,4.50
2023-08-22T04:50:20.033Z,4.55
2023-08-22T04:52:46.778Z,5.50
2023-08-22T04:55:13.497Z,5.03
2023-08-22T04:57:40.651Z,5.80
2023-08-22T05:00:10.813Z,6.35
2023-08-22T05:02:38.103Z,6.53
2023-08-22T05:05:07.080Z,6.03
2023-08-22T05:07:33.920Z,6.50
2023-08-22T05:10:00.931Z,7.07
2023-08-22T05:12:27.674Z,7.20
2023-08-22T05:14:54.417Z,9.20
2023-08-22T05:17:21.188Z,7.78
2023-08-22T05:19:47.968Z,7.65
2023-08-22T05:22:14.726Z,6.47
2023-08-22T05:24:41.437Z,6.20
2023-08-22T05:27:08.151Z,5.90
2023-08-22T05:29:34.958Z,6.07
2023-08-22T05:32:01.755Z,5.35
2023-08-22T05:34:28.560Z,4.72
2023-08-22T05:36:55.345Z,5.68
2023-08-22T05:39:22.119Z,4.90
2023-08-22T05:41:48.814Z,4.28
2023-08-22T05:44:15.528Z,5.05
2023-08-22T05:46:42.236Z,3.55
2023-08-22T05:49:08.939Z,3.50
2023-08-22T05:51:35.672Z,3.42
2023-08-22T05:54:02.380Z,3.80
2023-08-22T05:56:29.138Z,4.03
2023-08-22T05:58:55.974Z,4.32
2023-08-22T06:01:22.744Z,4.55
2023-08-22T06:03:49.573Z,4.28
2023-08-22T06:06:16.320Z,5.68
2023-08-22T06:08:43.023Z,3.83
2023-08-22T06:11:09.763Z,4.93
2023-08-22T06:13:36.514Z,4.30
2023-08-22T06:16:03.439Z,4.53
2023-08-22T06:18:30.181Z,3.90
2023-08-22T06:21:00.972Z,3.80
2023-08-22T06:23:27.770Z,4.45
2023-08-22T06:25:54.475Z,3.47
2023-08-22T06:28:21.223Z,3.03
2023-08-22T06:30:47.942Z,3.83
2023-08-22T06:33:14.768Z,3.13
2023-08-22T06:35:41.510Z,3.63
2023-08-22T06:38:08.241Z,4.05
2023-08-22T06:40:36.542Z,2.55
2023-08-22T06:43:04.515Z,5.65
2023-08-22T06:45:31.300Z,3.00
2023-08-22T06:47:58.159Z,3.22
2023-08-22T06:50:24.929Z,3.30
2023-08-22T06:52:51.997Z,2.33
2023-08-22T06:55:18.710Z,2.88
2023-08-22T06:57:45.758Z,3.55
2023-08-22T07:00:16.509Z,1.73
2023-08-22T07:02:44.123Z,2.10
2023-08-22T07:05:11.668Z,2.38
2023-08-22T07:07:39.234Z,2.05
2023-08-22T07:10:07.196Z,2.47
2023-08-22T07:12:33.912Z,1.98
2023-08-22T07:15:00.679Z,2.10
2023-08-22T07:17:27.703Z,2.50
2023-08-22T07:19:54.592Z,2.10
2023-08-22T07:22:21.321Z,2.88
2023-08-22T07:24:48.098Z,2.38
2023-08-22T07:27:15.184Z,2.35
2023-08-22T07:29:41.890Z,2.95
2023-08-22T07:32:09.434Z,2.20
2023-08-22T07:34:36.302Z,2.17
2023-08-22T07:37:03.016Z,2.00
2023-08-22T07:39:29.803Z,1.80
2023-08-22T07:41:56.618Z,2.17
2023-08-22T07:44:25.165Z,2.38
2023-08-22T07:46:52.441Z,2.05
2023-08-22T07:49:19.268Z,2.45
2023-08-22T07:51:45.986Z,1.88
2023-08-22T07:54:12.872Z,2.92
2023-08-22T07:56:39.779Z,2.70
2023-08-22T07:59:06.696Z,2.13
2023-08-22T08:01:37.705Z,1.60
2023-08-22T08:04:04.670Z,1.70
2023-08-22T08:06:34.914Z,1.63
2023-08-22T08:09:02.340Z,2.45
2023-08-22T08:11:30.286Z,2.22
2023-08-22T08:13:57.700Z,1.80
2023-08-22T08:16:38.708Z,2.25
2023-08-22T08:19:07.060Z,2.00
2023-08-22T08:21:33.928Z,2.30
2023-08-22T08:24:00.636Z,1.50
2023-08-22T08:26:28.074Z,1.67
2023-08-22T08:28:54.788Z,2.13
2023-08-22T08:31:21.496Z,1.90
2023-08-22T08:33:48.196Z,1.42
2023-08-22T08:36:17.666Z,1.73
2023-08-22T08:38:45.558Z,3.33
2023-08-22T08:41:12.291Z,2.03
2023-08-22T08:43:39.196Z,2.03
2023-08-22T08:46:07.143Z,2.40
2023-08-22T08:48:33.924Z,1.30
2023-08-22T08:51:01.724Z,2.00
2023-08-22T08:53:28.581Z,1.60
2023-08-22T08:55:55.406Z,3.15
2023-08-22T08:58:22.160Z,2.70
2023-08-22T09:00:48.922Z,1.88
2023-08-22T09:03:15.614Z,1.67
2023-08-22T09:05:42.360Z,1.80
2023-08-22T09:08:19.412Z,1.40
2023-08-22T09:10:53.557Z,1.48
2023-08-22T09:13:46.011Z,1.65
2023-08-22T09:16:17.473Z,1.73
2023-08-22T09:18:44.324Z,1.40
2023-08-22T09:21:11.866Z,1.58
2023-08-22T09:23:39.122Z,1.30
2023-08-22T09:26:05.960Z,1.10
2023-08-22T09:28:32.764Z,1.15
2023-08-22T09:31:00.007Z,1.10
2023-08-22T09:33:26.848Z,1.38
2023-08-22T09:35:58.011Z,1.42
2023-08-22T09:38:24.768Z,1.13
2023-08-22T09:40:53.002Z,1.40
2023-08-22T09:43:20.662Z,1.45
2023-08-22T09:45:48.441Z,0.90
2023-08-22T09:48:25.624Z,0.98
2023-08-22T09:50:57.826Z,1.40
2023-08-22T09:53:24.599Z,1.17
2023-08-22T09:55:51.556Z,1.17
2023-08-22T09:58:18.413Z,1.30
2023-08-22T10:00:46.604Z,1.15
2023-08-22T10:03:13.765Z,1.25
2023-08-22T10:05:41.281Z,1.10
2023-08-22T10:08:08.041Z,1.25
2023-08-22T10:10:34.888Z,1.48
2023-08-22T10:13:02.530Z,1.13
2023-08-22T10:15:29.354Z,1.13
2023-08-22T10:17:56.735Z,1.27
2023-08-22T10:20:23.815Z,0.93
2023-08-22T10:22:53.182Z,0.60
2023-08-22T10:25:20.073Z,1.50
2023-08-22T10:27:50.000Z,1.00
2023-08-22T10:30:20.517Z,1.63
2023-08-22T10:33:17.031Z,1.10
2023-08-22T10:38:59.054Z,0.80
2023-08-22T10:44:30.343Z,1.20
2023-08-22T10:47:04.780Z,0.70
2023-08-22T10:49:32.424Z,0.70
2023-08-22T10:52:17.662Z,1.67
2023-08-22T10:55:02.410Z,1.10
2023-08-22T10:57:31.021Z,1.20
2023-08-22T11:00:00.845Z,1.20
2023-08-22T11:02:34.519Z,1.10
2023-08-22T11:05:02.407Z,1.88
2023-08-22T11:07:29.968Z,1.20
2023-08-22T11:09:56.857Z,1.05
2023-08-22T11:12:27.953Z,1.02
2023-08-22T11:14:55.614Z,0.75
2023-08-22T11:17:22.951Z,1.35
2023-08-22T11:19:50.267Z,1.08
2023-08-22T11:22:16.996Z,1.42
2023-08-22T11:24:46.640Z,1.17
2023-08-22T11:27:13.897Z,1.10
2023-08-22T11:29:41.700Z,1.52
2023-08-22T11:32:23.858Z,0.80
2023-08-22T11:34:51.777Z,0.90
2023-08-22T11:37:19.164Z,1.55
2023-08-22T11:39:47.647Z,1.23
2023-08-22T11:42:18.481Z,1.02
2023-08-22T11:45:06.031Z,0.52
2023-08-22T11:47:40.963Z,1.17
2023-08-22T11:50:11.860Z,0.70
2023-08-22T11:52:41.613Z,0.90
2023-08-22T11:55:09.228Z,1.13
2023-08-22T11:57:37.037Z,0.77
2023-08-22T12:00:08.040Z,1.02
2023-08-22T12:02:35.269Z,0.85
2023-08-22T12:05:02.606Z,1.15
2023-08-22T12:07:29.359Z,0.90
2023-08-22T12:10:06.954Z,1.20
2023-08-22T12:12:33.880Z,0.90
2023-08-22T12:15:00.723Z,1.40
2023-08-22T12:17:27.548Z,1.65
2023-08-22T12:19:54.328Z,1.10
2023-08-22T12:22:21.070Z,0.93
2023-08-22T12:24:49.236Z,1.17
2023-08-22T12:27:16.063Z,0.88
2023-08-22T12:29:43.169Z,1.30
2023-08-22T12:32:09.859Z,0.82
2023-08-22T12:34:36.587Z,0.95
2023-08-22T12:37:03.349Z,0.80
2023-08-22T12:39:30.392Z,1.20
2023-08-22T12:41:57.165Z,1.00
2023-08-22T12:44:23.968Z,0.88
2023-08-22T12:46:52.588Z,0.93
2023-08-22T12:49:19.334Z,0.80
2023-08-22T12:51:46.147Z,0.60
2023-08-22T12:54:13.968Z,1.10
2023-08-22T12:56:40.751Z,0.55
2023-08-22T12:59:07.436Z,0.80
2023-08-22T13:01:35.333Z,0.90
2023-08-22T13:04:02.939Z,0.93
2023-08-22T13:06:31.281Z,1.08
2023-08-22T13:08:59.673Z,1.02
2023-08-22T13:11:26.533Z,0.77
2023-08-22T13:13:53.326Z,0.90
2023-08-22T13:16:21.780Z,0.98
2023-08-22T13:18:48.786Z,0.85
2023-08-22T13:21:15.529Z,0.95
2023-08-22T13:23:42.264Z,0.80
2023-08-22T13:26:09.003Z,0.80
2023-08-22T13:28:35.706Z,1.33
2023-08-22T13:31:02.431Z,1.02
2023-08-22T13:33:29.243Z,0.93
2023-08-22T13:35:55.966Z,0.90
2023-08-22T13:38:22.691Z,0.80
2023-08-22T13:40:49.417Z,1.30
2023-08-22T13:43:16.111Z,0.80
2023-08-22T13:45:42.984Z,0.70
2023-08-22T13:48:10.633Z,1.17
2023-08-22T13:50:37.424Z,0.80
2023-08-22T13:53:04.282Z,0.80
2023-08-22T13:55:30.982Z,0.82
2023-08-22T13:57:57.816Z,1.13
2023-08-22T14:00:25.670Z,1.00
2023-08-22T14:02:52.429Z,0.80
2023-08-22T14:05:19.374Z,0.80
2023-08-22T14:07:46.293Z,1.13
2023-08-22T14:10:13.208Z,0.90
2023-08-22T14:12:39.935Z,1.35
2023-08-22T14:15:07.131Z,1.10
2023-08-22T14:17:33.833Z,0.95
2023-08-22T14:20:00.534Z,0.98
2023-08-22T14:22:27.345Z,0.95
2023-08-22T14:24:54.562Z,0.98
2023-08-22T14:27:21.286Z,1.00
2023-08-22T14:29:48.091Z,1.00
2023-08-22T14:32:14.810Z,0.77
2023-08-22T14:34:41.534Z,0.80
2023-08-22T14:37:21.557Z,0.90
2023-08-22T14:39:49.766Z,0.93
2023-08-22T14:42:16.517Z,0.88
2023-08-22T14:44:43.222Z,1.15
2023-08-22T14:47:10.636Z,1.13
2023-08-22T14:49:37.345Z,0.95
2023-08-22T14:52:04.299Z,1.20
2023-08-22T14:54:31.042Z,0.75
2023-08-22T14:56:57.754Z,1.10
2023-08-22T14:59:24.489Z,0.82
2023-08-22T15:01:51.322Z,0.85
2023-08-22T15:04:19.414Z,1.30
2023-08-22T15:06:46.248Z,1.05
2023-08-22T15:09:12.980Z,0.95
2023-08-22T15:11:39.720Z,0.73
2023-08-22T15:14:06.427Z,1.33
2023-08-22T15:16:33.202Z,1.00
2023-08-22T15:19:06.550Z,1.02
2023-08-22T15:21:33.383Z,0.60
2023-08-22T15:24:00.216Z,0.88
2023-08-22T15:26:27.143Z,0.90
2023-08-22T15:28:53.850Z,1.35
2023-08-22T15:31:20.592Z,0.80
2023-08-22T15:33:47.343Z,1.23
2023-08-22T15:36:14.099Z,1.30
2023-08-22T15:38:40.778Z,1.30
2023-08-22T15:41:10.578Z,1.55
2023-08-22T15:43:37.426Z,1.10
2023-08-22T15:46:04.125Z,1.10
2023-08-22T15:48:30.926Z,1.27
2023-08-22T15:51:00.835Z,1.55
2023-08-22T15:53:27.636Z,1.02
2023-08-22T15:55:54.423Z,1.13
2023-08-22T15:58:21.129Z,1.25
2023-08-22T16:00:48.053Z,1.08
2023-08-22T16:03:14.966Z,1.02
2023-08-22T16:05:41.984Z,0.90
2023-08-22T16:08:08.711Z,1.05
2023-08-22T16:10:35.526Z,1.20
2023-08-22T16:13:02.281Z,1.13
2023-08-22T16:15:30.665Z,0.80
2023-08-22T16:17:58.641Z,1.30
2023-08-22T16:20:25.436Z,1.25
2023-08-22T16:22:52.239Z,1.60
2023-08-22T16:25:18.968Z,0.70
2023-08-22T16:27:45.718Z,1.20
2023-08-22T16:30:12.951Z,1.77
2023-08-22T16:32:39.717Z,1.35
2023-08-22T16:35:06.842Z,1.23
2023-08-22T16:37:33.622Z,1.33
2023-08-22T16:40:00.403Z,1.30
2023-08-22T16:42:27.286Z,0.98
2023-08-22T16:44:54.124Z,1.60
2023-08-22T16:47:20.888Z,1.33
2023-08-22T16:49:48.553Z,1.23
2023-08-22T16:52:15.326Z,1.40
2023-08-22T16:54:42.024Z,1.25
2023-08-22T16:57:09.426Z,2.85
2023-08-22T16:59:38.924Z,1.95
2023-08-22T17:02:05.752Z,1.75
2023-08-22T17:04:32.595Z,1.50
2023-08-22T17:07:00.181Z,1.30
2023-08-22T17:09:27.612Z,1.20
2023-08-22T17:11:54.393Z,1.30
2023-08-22T17:14:21.198Z,1.88
2023-08-22T17:16:48.013Z,2.30
2023-08-22T17:19:15.682Z,1.60
2023-08-22T17:21:42.478Z,1.55
2023-08-22T17:24:09.940Z,2.33
2023-08-22T17:26:36.730Z,1.92
2023-08-22T17:29:03.599Z,1.50
2023-08-22T17:31:30.333Z,1.67
2023-08-22T17:33:57.352Z,1.67
2023-08-22T17:36:24.090Z,1.50
2023-08-22T17:38:51.704Z,1.30
2023-08-22T17:41:18.729Z,1.40
2023-08-22T17:43:45.480Z,1.60
2023-08-22T17:46:13.892Z,1.98
2023-08-22T17:48:40.888Z,1.55
2023-08-22T17:51:07.691Z,2.15
2023-08-22T17:53:34.425Z,1.60
2023-08-22T17:56:01.212Z,1.95
2023-08-22T17:58:28.256Z,1.48
2023-08-22T18:00:55.022Z,1.45
2023-08-22T18:03:22.136Z,1.95
2023-08-22T18:05:59.395Z,1.23
2023-08-22T18:08:26.368Z,1.50
2023-08-22T18:10:53.433Z,1.77
2023-08-22T18:13:20.590Z,2.03
2023-08-22T18:15:58.826Z,1.85
2023-08-22T18:18:38.310Z,1.83
2023-08-22T18:21:05.958Z,2.40
2023-08-22T18:23:32.861Z,1.42
2023-08-22T18:26:03.765Z,1.60
2023-08-22T18:28:32.653Z,1.63
2023-08-22T18:31:01.330Z,1.63
2023-08-22T18:33:28.375Z,1.77
2023-08-22T18:35:55.087Z,1.35
2023-08-22T18:38:22.248Z,2.33
2023-08-22T18:40:53.379Z,1.73
2023-08-22T18:43:20.173Z,1.63
2023-08-22T18:45:47.139Z,1.30
2023-08-22T18:48:14.163Z,1.73
2023-08-22T18:50:41.111Z,1.45
2023-08-22T18:53:07.886Z,2.10
2023-08-22T18:55:35.229Z,1.75
2023-08-22T18:58:02.173Z,2.65
2023-08-22T19:00:28.952Z,1.55
2023-08-22T19:02:57.812Z,1.83
2023-08-22T19:05:25.093Z,1.73
2023-08-22T19:07:52.865Z,2.53
2023-08-22T19:10:20.056Z,1.60
2023-08-22T19:12:46.872Z,1.40
2023-08-22T19:15:13.625Z,1.58
2023-08-22T19:17:40.376Z,3.08
2023-08-22T19:20:07.585Z,2.30
2023-08-22T19:22:35.191Z,1.60
2023-08-22T19:25:02.100Z,1.73
2023-08-22T19:27:29.603Z,1.50
2023-08-22T19:29:56.361Z,1.98
2023-08-22T19:32:40.156Z,2.17
2023-08-22T19:35:09.917Z,2.00
2023-08-22T19:37:37.525Z,2.53
2023-08-22T19:40:04.549Z,2.22
2023-08-22T19:42:31.285Z,2.05
2023-08-22T19:44:59.172Z,1.48
2023-08-22T19:47:25.966Z,1.98
2023-08-22T19:49:52.702Z,1.73
2023-08-22T19:52:19.670Z,1.38
2023-08-22T19:54:46.820Z,1.45
2023-08-22T19:57:13.633Z,1.70
2023-08-22T19:59:40.419Z,1.98
2023-08-22T20:02:07.369Z,1.30
2023-08-22T20:04:34.311Z,1.77
2023-08-22T20:07:00.995Z,1.80
2023-08-22T20:09:28.402Z,1.60
2023-08-22T20:11:55.147Z,1.40
2023-08-22T20:14:21.856Z,1.60
2023-08-22T20:16:48.582Z,0.90
2023-08-22T20:19:16.586Z,1.35
2023-08-22T20:21:43.288Z,1.45
2023-08-22T20:24:10.025Z,1.50
2023-08-22T20:26:42.045Z,1.20
2023-08-22T20:29:10.791Z,1.13
2023-08-22T20:31:39.046Z,1.60
2023-08-22T20:34:05.959Z,1.80
2023-08-22T20:36:32.752Z,2.25
2023-08-22T20:39:02.102Z,2.03
2023-08-22T20:41:31.966Z,2.05
2023-08-22T20:43:59.664Z,2.33
2023-08-22T20:46:26.772Z,2.55
2023-08-22T20:48:53.693Z,1.45
2023-08-22T20:51:20.394Z,1.58
2023-08-22T20:53:47.129Z,1.73
2023-08-22T20:56:13.833Z,1.40
2023-08-22T20:58:40.532Z,1.63
2023-08-22T21:01:07.242Z,1.33
2023-08-22T21:03:34.017Z,1.70
2023-08-22T21:06:00.892Z,1.58
2023-08-22T21:08:27.649Z,1.15
2023-08-22T21:10:54.449Z,1.80
2023-08-22T21:13:21.190Z,1.17
2023-08-22T21:15:47.922Z,1.20
2023-08-22T21:18:14.730Z,1.65
2023-08-22T21:20:41.595Z,1.17
2023-08-22T21:23:11.177Z,1.25
2023-08-22T21:25:37.989Z,1.50
2023-08-22T21:28:05.267Z,1.40
2023-08-22T21:30:32.108Z,1.77
2023-08-22T21:32:59.044Z,1.65
2023-08-22T21:35:25.915Z,1.33
2023-08-22T21:37:52.731Z,1.33
2023-08-22T21:40:19.741Z,1.38
2023-08-22T21:42:46.681Z,1.42
2023-08-22T21:45:14.141Z,1.10
2023-08-22T21:47:41.435Z,1.40
2023-08-22T21:50:08.775Z,1.17
2023-08-22T21:52:35.750Z,1.27
2023-08-22T21:55:02.599Z,1.60
2023-08-22T21:57:29.345Z,1.85
2023-08-22T21:59:56.366Z,2.70
2023-08-22T22:02:23.242Z,1.55
2023-08-22T22:04:49.988Z,2.05
2023-08-22T22:07:19.655Z,1.42
2023-08-22T22:09:46.516Z,1.40
2023-08-22T22:12:13.254Z,1.40
2023-08-22T22:14:40.080Z,1.80
2023-08-22T22:17:07.061Z,1.45
2023-08-22T22:19:33.887Z,1.40
2023-08-22T22:22:00.644Z,1.83
2023-08-22T22:24:27.371Z,1.75
2023-08-22T22:26:54.128Z,2.40
2023-08-22T22:29:20.882Z,2.72
2023-08-22T22:31:47.612Z,1.85
2023-08-22T22:34:14.362Z,1.90
2023-08-22T22:36:41.150Z,1.90
2023-08-22T22:39:07.913Z,1.98
2023-08-22T22:41:34.856Z,1.67
2023-08-22T22:44:01.593Z,1.70
2023-08-22T22:46:28.345Z,1.90
2023-08-22T22:48:55.049Z,1.80
2023-08-22T22:51:21.809Z,1.92
2023-08-22T22:53:48.617Z,2.47
2023-08-22T22:56:15.431Z,2.10
2023-08-22T22:58:42.364Z,2.35
2023-08-22T23:01:09.641Z,1.98
2023-08-22T23:03:36.694Z,1.95
2023-08-22T23:06:10.428Z,2.03
2023-08-22T23:11:05.045Z,1.90
2023-08-22T23:13:34.702Z,2.28
2023-08-22T23:16:01.441Z,2.97
2023-08-22T23:18:28.149Z,2.40
2023-08-22T23:20:54.865Z,2.65
2023-08-22T23:23:21.565Z,2.13
2023-08-22T23:25:51.734Z,2.78
2023-08-22T23:28:18.666Z,2.40
2023-08-22T23:30:45.474Z,2.10
2023-08-22T23:33:12.257Z,3.08
2023-08-22T23:35:39.084Z,2.17
2023-08-22T23:38:05.896Z,2.58
2023-08-22T23:40:32.670Z,3.00
2023-08-22T23:42:59.447Z,2.50
2023-08-22T23:45:26.525Z,2.38
2023-08-22T23:47:53.549Z,2.00
2023-08-22T23:50:20.510Z,2.72
2023-08-22T23:52:47.211Z,2.72
2023-08-22T23:55:13.959Z,2.13
2023-08-22T23:57:40.769Z,2.53
